createdAt,value
2023-03-21T00:00:47.929Z,10.80
2023-03-21T00:03:16.285Z,10.80
2023-03-21T00:05:51.892Z,10.80
2023-03-21T00:08:21.492Z,10.80
2023-03-21T00:10:57.381Z,10.90
2023-03-21T00:13:26.462Z,10.80
2023-03-21T00:16:18.667Z,10.80
2023-03-21T00:18:46.410Z,10.70
2023-03-21T00:24:06.441Z,10.70
2023-03-21T00:26:34.512Z,10.70
2023-03-21T00:29:02.055Z,10.80
2023-03-21T00:31:30.157Z,10.80
2023-03-21T00:33:57.802Z,10.80
2023-03-21T00:36:26.071Z,10.80
2023-03-21T00:38:54.727Z,10.90
2023-03-21T00:41:39.230Z,10.80
2023-03-21T00:44:13.601Z,10.80
2023-03-21T00:46:54.170Z,10.80
2023-03-21T00:49:28.590Z,10.90
2023-03-21T00:51:59.593Z,10.80
2023-03-21T00:54:35.666Z,10.70
2023-03-21T00:57:05.302Z,10.70
2023-03-21T00:59:33.037Z,10.70
2023-03-21T01:02:00.697Z,10.70
2023-03-21T01:04:28.856Z,10.70
2023-03-21T01:06:56.457Z,10.70
2023-03-21T01:09:25.421Z,10.80
2023-03-21T01:11:54.241Z,10.70
2023-03-21T01:14:23.980Z,10.80
2023-03-21T01:16:53.458Z,10.70
2023-03-21T01:19:38.015Z,10.70
2023-03-21T01:22:08.717Z,10.70
2023-03-21T01:24:40.460Z,10.70
2023-03-21T01:27:11.199Z,10.70
2023-03-21T01:29:38.718Z,10.70
2023-03-21T01:32:06.440Z,10.70
2023-03-21T01:34:34.302Z,10.70
2023-03-21T01:37:01.935Z,10.80
2023-03-21T01:39:34.843Z,10.80
2023-03-21T01:42:02.412Z,10.70
2023-03-21T01:44:30.797Z,10.70
2023-03-21T01:47:10.594Z,10.70
2023-03-21T01:49:52.563Z,10.70
2023-03-21T01:52:38.703Z,10.60
2023-03-21T01:55:13.926Z,10.60
2023-03-21T01:58:05.436Z,10.60
2023-03-21T02:00:55.209Z,10.60
2023-03-21T02:03:38.474Z,10.50
2023-03-21T02:06:48.964Z,10.60
2023-03-21T02:09:33.434Z,10.50
2023-03-21T02:12:02.133Z,10.50
2023-03-21T02:14:34.650Z,10.40
2023-03-21T02:17:54.277Z,10.40
2023-03-21T02:21:27.690Z,10.40
2023-03-21T02:25:06.143Z,10.30
2023-03-21T02:27:51.244Z,10.20
2023-03-21T02:31:16.455Z,10.30
2023-03-21T02:34:27.260Z,10.30
2023-03-21T02:37:18.969Z,10.20
2023-03-21T02:40:11.022Z,10.20
2023-03-21T02:43:01.209Z,10.10
2023-03-21T02:45:43.617Z,10.10
2023-03-21T02:48:29.317Z,10.10
2023-03-21T02:51:04.177Z,10.10
2023-03-21T02:53:40.622Z,10.10
2023-03-21T02:56:10.755Z,10.10
2023-03-21T02:58:43.700Z,10.10
2023-03-21T03:01:11.549Z,10.10
2023-03-21T03:03:44.728Z,10.10
2023-03-21T03:06:29.034Z,10.10
2023-03-21T03:09:56.192Z,10.10
2023-03-21T03:13:08.100Z,10.10
2023-03-21T03:16:05.145Z,10.20
2023-03-21T03:18:56.780Z,10.20
2023-03-21T03:21:56.639Z,10.10
2023-03-21T03:24:36.836Z,10.20
2023-03-21T03:27:17.642Z,10.10
2023-03-21T03:29:48.722Z,10.10
2023-03-21T03:32:35.469Z,10.10
2023-03-21T03:35:06.858Z,10.10
2023-03-21T03:37:37.311Z,10.10
2023-03-21T03:40:18.226Z,10.10
2023-03-21T03:43:03.045Z,10.10
2023-03-21T03:45:43.979Z,10.00
2023-03-21T03:48:34.086Z,10.00
2023-03-21T03:51:10.395Z,10.00
2023-03-21T03:54:07.685Z,10.00
2023-03-21T03:56:36.383Z,10.00
2023-03-21T03:59:07.541Z,10.00
2023-03-21T04:01:53.691Z,10.00
2023-03-21T04:04:22.977Z,10.00
2023-03-21T04:06:53.405Z,10.00
2023-03-21T04:09:37.212Z,10.00
2023-03-21T04:12:10.777Z,9.90
2023-03-21T04:14:45.694Z,9.80
2023-03-21T04:17:16.037Z,9.80
2023-03-21T04:19:43.628Z,9.80
2023-03-21T04:22:12.564Z,9.70
2023-03-21T04:24:44.047Z,9.60
2023-03-21T04:27:11.619Z,9.60
2023-03-21T04:29:42.083Z,9.50
2023-03-21T04:32:42.609Z,9.40
2023-03-21T04:35:15.357Z,9.40
2023-03-21T04:37:42.873Z,9.40
2023-03-21T04:40:17.614Z,9.40
2023-03-21T04:42:47.744Z,9.40
2023-03-21T04:45:17.466Z,9.50
2023-03-21T04:47:46.590Z,9.50
2023-03-21T04:50:15.797Z,9.50
2023-03-21T04:52:44.302Z,9.50
2023-03-21T04:55:11.891Z,9.50
2023-03-21T04:57:40.295Z,9.40
2023-03-21T05:00:13.092Z,9.50
2023-03-21T05:02:41.032Z,9.50
2023-03-21T05:05:11.325Z,9.50
2023-03-21T05:07:41.157Z,9.60
2023-03-21T05:10:12.257Z,9.60
2023-03-21T05:12:42.672Z,9.60
2023-03-21T05:15:10.653Z,9.60
2023-03-21T05:17:38.493Z,9.60
2023-03-21T05:20:09.255Z,9.60
2023-03-21T05:22:40.270Z,9.60
2023-03-21T05:25:11.668Z,9.60
2023-03-21T05:28:04.742Z,9.50
2023-03-21T05:30:33.524Z,9.40
2023-03-21T05:33:02.738Z,9.30
2023-03-21T05:35:31.376Z,9.30
2023-03-21T05:38:02.032Z,9.30
2023-03-21T05:40:33.174Z,9.30
2023-03-21T05:43:01.023Z,9.30
2023-03-21T05:45:28.588Z,9.30
2023-03-21T05:47:56.626Z,9.40
2023-03-21T05:50:29.357Z,9.30
2023-03-21T05:53:17.469Z,9.40
2023-03-21T05:55:45.594Z,9.30
2023-03-21T05:58:24.568Z,9.30
2023-03-21T06:00:52.593Z,9.30
2023-03-21T06:03:27.652Z,9.40
2023-03-21T06:06:03.598Z,9.30
2023-03-21T06:08:37.156Z,9.30
2023-03-21T06:11:20.204Z,9.30
2023-03-21T06:13:48.146Z,9.30
2023-03-21T06:16:15.812Z,9.30
2023-03-21T06:18:43.977Z,9.40
2023-03-21T06:21:26.359Z,9.30
2023-03-21T06:23:54.325Z,9.30
2023-03-21T06:26:23.253Z,9.30
2023-03-21T06:28:54.034Z,9.30
2023-03-21T06:31:22.690Z,9.30
2023-03-21T06:33:52.126Z,9.30
2023-03-21T06:36:20.194Z,9.40
2023-03-21T06:38:48.602Z,9.40
2023-03-21T06:41:16.949Z,9.40
2023-03-21T06:43:52.067Z,9.40
2023-03-21T06:46:20.379Z,9.40
2023-03-21T06:48:48.495Z,9.40
2023-03-21T06:51:16.656Z,9.50
2023-03-21T06:53:57.428Z,9.60
2023-03-21T06:56:30.749Z,9.60
2023-03-21T06:58:58.596Z,9.70
2023-03-21T07:01:45.484Z,9.80
2023-03-21T07:04:13.789Z,9.90
2023-03-21T07:06:42.406Z,10.00
2023-03-21T07:09:10.038Z,10.10
2023-03-21T07:11:38.689Z,10.20
2023-03-21T07:14:06.893Z,10.20
2023-03-21T07:16:34.780Z,10.30
2023-03-21T07:19:02.341Z,10.30
2023-03-21T07:21:29.895Z,10.40
2023-03-21T07:23:57.497Z,10.40
2023-03-21T07:26:25.048Z,10.50
2023-03-21T07:28:52.553Z,10.50
2023-03-21T07:31:20.229Z,10.60
2023-03-21T07:33:49.211Z,10.70
2023-03-21T07:36:16.887Z,10.70
2023-03-21T07:38:46.254Z,10.70
2023-03-21T07:43:46.719Z,10.70
2023-03-21T07:46:14.384Z,10.70
2023-03-21T07:48:41.904Z,10.70
2023-03-21T07:51:09.665Z,10.70
2023-03-21T07:53:37.366Z,10.70
2023-03-21T07:56:05.659Z,10.80
2023-03-21T07:58:34.305Z,10.90
2023-03-21T08:01:02.324Z,10.80
2023-03-21T08:03:31.379Z,10.90
2023-03-21T08:06:02.057Z,11.00
2023-03-21T08:08:29.756Z,11.00
2023-03-21T08:10:57.461Z,11.10
2023-03-21T08:13:26.037Z,11.10
2023-03-21T08:15:53.837Z,11.20
2023-03-21T08:18:21.489Z,11.20
2023-03-21T08:20:57.060Z,11.30
2023-03-21T08:23:25.896Z,11.30
2023-03-21T08:25:54.937Z,11.40
2023-03-21T08:28:23.647Z,11.40
2023-03-21T08:30:51.334Z,11.50
2023-03-21T08:33:19.274Z,11.50
2023-03-21T08:35:47.281Z,11.50
2023-03-21T08:38:14.840Z,11.50
2023-03-21T08:40:42.478Z,11.60
2023-03-21T08:43:10.232Z,11.60
2023-03-21T08:45:38.137Z,11.60
2023-03-21T08:48:06.429Z,11.70
2023-03-21T08:50:33.967Z,11.80
2023-03-21T08:53:01.522Z,11.80
2023-03-21T08:55:29.090Z,11.90
2023-03-21T08:57:57.999Z,12.00
2023-03-21T09:00:25.952Z,12.10
2023-03-21T09:02:54.499Z,12.10
2023-03-21T09:05:25.446Z,12.20
2023-03-21T09:07:53.539Z,12.30
2023-03-21T09:10:23.298Z,12.40
2023-03-21T09:12:53.720Z,12.50
2023-03-21T09:15:24.925Z,12.50
2023-03-21T09:17:54.027Z,12.60
2023-03-21T09:20:30.908Z,12.80
2023-03-21T09:22:59.862Z,12.80
2023-03-21T09:25:30.938Z,12.90
2023-03-21T09:28:00.499Z,12.90
2023-03-21T09:30:29.339Z,13.00
2023-03-21T09:32:56.926Z,13.20
2023-03-21T09:35:24.808Z,13.20
2023-03-21T09:37:52.853Z,13.30
2023-03-21T09:41:16.519Z,13.40
2023-03-21T09:44:13.960Z,13.50
2023-03-21T09:47:20.674Z,13.60
2023-03-21T09:50:13.153Z,13.60
2023-03-21T09:53:38.943Z,13.60
2023-03-21T09:56:12.476Z,13.80
2023-03-21T09:58:55.236Z,13.80
2023-03-21T10:01:34.404Z,13.90
2023-03-21T10:04:07.989Z,14.00
2023-03-21T10:06:41.126Z,14.10
2023-03-21T10:09:24.315Z,14.20
2023-03-21T10:12:14.838Z,14.40
2023-03-21T10:14:51.768Z,14.50
2023-03-21T10:17:40.902Z,14.60
2023-03-21T10:20:21.697Z,14.70
2023-03-21T10:22:53.985Z,14.80
2023-03-21T10:25:54.026Z,14.80
2023-03-21T10:28:26.729Z,14.80
2023-03-21T10:31:07.230Z,14.80
2023-03-21T10:33:39.692Z,14.80
2023-03-21T10:36:25.827Z,14.80
2023-03-21T10:39:04.997Z,14.70
2023-03-21T10:41:34.159Z,14.60
2023-03-21T10:44:14.653Z,14.70
2023-03-21T10:46:57.814Z,14.80
2023-03-21T10:49:26.669Z,14.70
2023-03-21T10:51:59.291Z,14.80
2023-03-21T10:54:31.157Z,14.90
2023-03-21T10:57:23.111Z,15.00
2023-03-21T10:59:58.147Z,14.90
2023-03-21T11:02:33.714Z,14.90
2023-03-21T11:05:37.376Z,15.00
2023-03-21T11:08:12.146Z,15.10
2023-03-21T11:11:08.662Z,15.10
2023-03-21T11:13:44.731Z,15.20
2023-03-21T11:16:22.679Z,15.30
2023-03-21T11:18:56.450Z,15.20
2023-03-21T11:21:29.787Z,15.20
2023-03-21T11:23:57.637Z,15.10
2023-03-21T11:26:36.797Z,14.90
2023-03-21T11:29:32.858Z,14.80
2023-03-21T11:32:12.647Z,14.80
2023-03-21T11:35:00.342Z,14.80
2023-03-21T11:37:57.049Z,14.80
2023-03-21T11:40:34.113Z,14.90
2023-03-21T11:43:23.109Z,14.90
2023-03-21T11:46:10.415Z,15.00
2023-03-21T11:48:46.919Z,15.00
2023-03-21T11:51:29.439Z,15.00
2023-03-21T11:54:10.755Z,14.90
2023-03-21T11:56:59.355Z,15.00
2023-03-21T11:59:49.416Z,15.00
2023-03-21T12:02:42.940Z,14.90
2023-03-21T12:05:46.224Z,15.00
2023-03-21T12:08:40.202Z,15.00
2023-03-21T12:11:43.253Z,15.10
2023-03-21T12:14:34.644Z,15.00
2023-03-21T12:17:47.593Z,15.00
2023-03-21T12:20:35.132Z,15.00
2023-03-21T12:23:45.554Z,15.00
2023-03-21T12:26:42.207Z,15.10
2023-03-21T12:29:18.842Z,15.10
2023-03-21T12:32:11.018Z,15.30
2023-03-21T12:35:06.763Z,15.40
2023-03-21T12:38:01.886Z,15.40
2023-03-21T12:41:08.078Z,15.50
2023-03-21T12:44:01.428Z,15.50
2023-03-21T12:46:42.790Z,15.60
2023-03-21T12:49:26.497Z,15.70
2023-03-21T12:52:34.669Z,15.90
2023-03-21T12:55:21.385Z,16.00
2023-03-21T12:58:06.182Z,16.00
2023-03-21T13:00:56.968Z,16.10
2023-03-21T13:03:54.314Z,16.10
2023-03-21T13:06:24.872Z,16.10
2023-03-21T13:09:36.711Z,16.20
2023-03-21T13:13:02.614Z,16.20
2023-03-21T13:15:42.089Z,16.30
2023-03-21T13:18:12.456Z,16.30
2023-03-21T13:20:47.560Z,16.30
2023-03-21T13:23:15.352Z,16.20
2023-03-21T13:25:48.108Z,16.10
2023-03-21T13:28:27.482Z,16.10
2023-03-21T13:31:24.858Z,16.10
2023-03-21T13:33:58.586Z,16.10
2023-03-21T13:36:31.131Z,15.80
2023-03-21T13:39:06.790Z,15.70
2023-03-21T13:41:47.134Z,15.70
2023-03-21T13:44:48.966Z,15.60
2023-03-21T13:47:50.843Z,15.60
2023-03-21T13:50:18.270Z,15.60
2023-03-21T13:53:11.107Z,15.50
2023-03-21T13:55:45.932Z,15.50
2023-03-21T13:58:49.724Z,15.50
2023-03-21T14:01:38.400Z,15.60
2023-03-21T14:04:15.531Z,15.70
2023-03-21T14:07:05.835Z,15.80
2023-03-21T14:09:46.128Z,15.80
2023-03-21T14:12:36.626Z,15.80
2023-03-21T14:15:17.795Z,15.90
2023-03-21T14:17:55.400Z,15.90
2023-03-21T14:20:30.680Z,15.90
2023-03-21T14:22:58.509Z,15.90
2023-03-21T14:25:41.033Z,15.90
2023-03-21T14:28:28.734Z,15.90
2023-03-21T14:31:02.163Z,15.90
2023-03-21T14:33:39.381Z,16.00
2023-03-21T14:36:35.215Z,15.90
2023-03-21T14:39:24.002Z,15.90
2023-03-21T14:41:55.522Z,15.90
2023-03-21T14:44:26.505Z,15.90
2023-03-21T14:47:06.126Z,15.70
2023-03-21T14:49:36.786Z,15.60
2023-03-21T14:52:20.558Z,15.60
2023-03-21T14:54:49.301Z,15.60
2023-03-21T14:57:37.704Z,15.60
2023-03-21T15:00:14.445Z,15.50
2023-03-21T15:02:44.618Z,15.50
2023-03-21T15:05:22.001Z,15.60
2023-03-21T15:07:57.400Z,15.50
2023-03-21T15:10:28.323Z,15.50
2023-03-21T15:13:00.267Z,15.40
2023-03-21T15:15:29.948Z,15.50
2023-03-21T15:18:08.273Z,15.60
2023-03-21T15:20:38.357Z,15.60
2023-03-21T15:23:29.850Z,15.60
2023-03-21T15:25:58.484Z,15.60
2023-03-21T15:28:26.291Z,15.50
2023-03-21T15:30:54.761Z,15.30
2023-03-21T15:33:25.436Z,15.30
2023-03-21T15:35:58.136Z,15.30
2023-03-21T15:38:44.898Z,15.20
2023-03-21T15:41:28.783Z,15.30
2023-03-21T15:44:02.545Z,15.40
2023-03-21T15:46:41.368Z,15.30
2023-03-21T15:49:15.007Z,15.20
2023-03-21T15:52:04.421Z,15.20
2023-03-21T15:54:43.416Z,15.10
2023-03-21T15:57:38.025Z,15.10
2023-03-21T16:00:19.696Z,15.20
2023-03-21T16:02:53.335Z,15.20
2023-03-21T16:05:28.446Z,15.10
2023-03-21T16:08:20.573Z,15.00
2023-03-21T16:10:49.040Z,14.90
2023-03-21T16:13:17.533Z,14.90
2023-03-21T16:15:46.875Z,14.90
2023-03-21T16:18:17.357Z,15.00
2023-03-21T16:20:46.751Z,14.90
2023-03-21T16:23:15.807Z,14.80
2023-03-21T16:25:44.561Z,14.80
2023-03-21T16:28:17.138Z,14.80
2023-03-21T16:30:45.409Z,14.70
2023-03-21T16:33:13.766Z,14.80
2023-03-21T16:35:41.480Z,14.80
2023-03-21T16:38:12.350Z,14.80
2023-03-21T16:40:43.515Z,14.80
2023-03-21T16:43:11.672Z,14.70
2023-03-21T16:45:39.337Z,14.70
2023-03-21T16:48:08.724Z,14.70
2023-03-21T16:50:42.416Z,14.70
2023-03-21T16:53:10.173Z,14.80
2023-03-21T16:55:38.770Z,14.80
2023-03-21T16:58:06.528Z,14.80
2023-03-21T17:00:37.566Z,14.80
2023-03-21T17:03:18.085Z,14.80
2023-03-21T17:05:46.198Z,14.80
2023-03-21T17:08:17.070Z,14.80
2023-03-21T17:10:45.944Z,14.70
2023-03-21T17:13:13.522Z,14.60
2023-03-21T17:15:42.085Z,14.60
2023-03-21T17:18:11.866Z,14.50
2023-03-21T17:20:41.403Z,14.50
2023-03-21T17:23:10.368Z,14.50
2023-03-21T17:25:38.136Z,14.50
2023-03-21T17:28:05.693Z,14.50
2023-03-21T17:30:36.780Z,14.40
2023-03-21T17:33:04.461Z,14.40
2023-03-21T17:35:32.249Z,14.30
2023-03-21T17:37:59.777Z,14.30
2023-03-21T17:40:32.159Z,14.30
2023-03-21T17:43:01.289Z,14.30
2023-03-21T17:45:29.654Z,14.30
2023-03-21T17:47:57.334Z,14.30
2023-03-21T17:50:27.531Z,14.20
2023-03-21T17:52:57.739Z,14.30
2023-03-21T17:55:26.139Z,14.20
2023-03-21T17:57:53.903Z,14.20
2023-03-21T18:00:28.332Z,14.10
2023-03-21T18:02:56.554Z,14.10
2023-03-21T18:05:25.508Z,14.10
2023-03-21T18:08:09.870Z,14.10
2023-03-21T18:10:40.027Z,14.10
2023-03-21T18:13:07.822Z,14.10
2023-03-21T18:15:38.053Z,14.10
2023-03-21T18:18:06.044Z,14.00
2023-03-21T18:23:21.920Z,13.90
2023-03-21T18:25:52.202Z,13.80
2023-03-21T18:28:21.485Z,13.80
2023-03-21T18:33:41.324Z,13.80
2023-03-21T18:36:10.329Z,13.70
2023-03-21T18:38:38.214Z,13.70
2023-03-21T18:41:07.815Z,13.60
2023-03-21T18:46:24.859Z,13.60
2023-03-21T18:48:52.664Z,13.50
2023-03-21T18:51:20.324Z,13.50
2023-03-21T18:53:47.833Z,13.50
2023-03-21T18:56:57.772Z,13.50
2023-03-21T18:59:04.951Z,13.50
2023-03-21T19:01:32.783Z,13.50
2023-03-21T19:06:50.078Z,13.60
2023-03-21T19:09:18.643Z,13.60
2023-03-21T19:11:47.119Z,13.60
2023-03-21T19:14:16.927Z,13.60
2023-03-21T19:17:18.318Z,13.60
2023-03-21T19:19:33.672Z,13.50
2023-03-21T19:22:01.657Z,13.50
2023-03-21T19:24:29.665Z,13.40
2023-03-21T19:26:57.541Z,13.30
2023-03-21T19:29:25.717Z,13.30
2023-03-21T19:31:53.508Z,13.40
2023-03-21T19:34:21.175Z,13.30
2023-03-21T19:36:52.024Z,13.30
2023-03-21T19:39:22.598Z,13.30
2023-03-21T19:41:55.254Z,13.30
2023-03-21T19:44:29.706Z,13.30
2023-03-21T19:46:57.220Z,13.30
2023-03-21T19:49:34.725Z,13.30
2023-03-21T19:52:13.350Z,13.30
2023-03-21T19:54:40.946Z,13.30
2023-03-21T19:57:09.758Z,13.30
2023-03-21T19:59:37.703Z,13.30
2023-03-21T20:02:31.190Z,13.30
2023-03-21T20:04:53.534Z,13.30
2023-03-21T20:07:21.028Z,13.20
2023-03-21T20:09:52.843Z,13.10
2023-03-21T20:12:22.983Z,13.10
2023-03-21T20:14:55.989Z,13.00
2023-03-21T20:17:32.897Z,13.00
2023-03-21T20:20:01.032Z,13.00
2023-03-21T20:22:58.859Z,13.00
2023-03-21T20:25:16.715Z,13.00
2023-03-21T20:27:44.945Z,13.00
2023-03-21T20:30:18.857Z,13.00
2023-03-21T20:32:47.014Z,13.00
2023-03-21T20:35:29.507Z,12.90
2023-03-21T20:38:05.289Z,13.00
2023-03-21T20:40:32.794Z,13.00
2023-03-21T20:43:28.437Z,13.00
2023-03-21T20:45:49.107Z,12.90
2023-03-21T20:48:16.970Z,12.90
2023-03-21T20:50:44.868Z,13.00
2023-03-21T20:53:12.647Z,13.00
2023-03-21T20:55:40.366Z,13.00
2023-03-21T20:58:30.044Z,13.00
2023-03-21T21:00:59.575Z,13.00
2023-03-21T21:03:27.164Z,13.00
2023-03-21T21:05:54.905Z,13.00
2023-03-21T21:08:22.396Z,13.00
2023-03-21T21:11:32.682Z,13.00
2023-03-21T21:13:37.876Z,12.90
2023-03-21T21:16:07.650Z,12.90
2023-03-21T21:18:36.573Z,12.90
2023-03-21T21:21:06.883Z,12.80
2023-03-21T21:23:39.723Z,12.80
2023-03-21T21:26:09.147Z,12.80
2023-03-21T21:28:38.322Z,12.80
2023-03-21T21:31:19.840Z,12.80
2023-03-21T21:33:50.067Z,12.80
2023-03-21T21:36:17.727Z,12.80
2023-03-21T21:38:46.291Z,12.80
2023-03-21T21:41:25.196Z,12.90
2023-03-21T21:43:52.732Z,12.90
2023-03-21T21:46:20.296Z,12.80
2023-03-21T21:48:48.835Z,12.90
2023-03-21T21:51:26.083Z,12.90
2023-03-21T21:53:55.895Z,12.90
2023-03-21T21:56:25.895Z,12.80
2023-03-21T21:58:54.466Z,12.80
2023-03-21T22:01:21.981Z,12.80
2023-03-21T22:03:51.591Z,12.70
2023-03-21T22:06:19.108Z,12.60
2023-03-21T22:08:47.061Z,12.50
2023-03-21T22:11:15.910Z,12.40
2023-03-21T22:13:43.619Z,12.40
2023-03-21T22:16:11.780Z,12.30
2023-03-21T22:18:39.342Z,12.30
2023-03-21T22:21:07.362Z,12.30
2023-03-21T22:23:35.199Z,12.30
2023-03-21T22:26:02.819Z,12.20
2023-03-21T22:28:34.343Z,12.20
2023-03-21T22:31:10.276Z,12.10
2023-03-21T22:33:38.041Z,12.00
2023-03-21T22:36:06.893Z,12.00
2023-03-21T22:38:34.757Z,12.00
2023-03-21T22:41:05.398Z,12.00
2023-03-21T22:43:34.260Z,11.90
2023-03-21T22:46:03.847Z,12.00
2023-03-21T22:48:31.871Z,12.00
2023-03-21T22:51:00.439Z,12.00
2023-03-21T22:53:28.338Z,11.90
2023-03-21T22:55:56.420Z,11.90
2023-03-21T22:58:24.378Z,11.90
2023-03-21T23:00:52.074Z,11.90
2023-03-21T23:03:19.833Z,11.80
2023-03-21T23:05:47.336Z,11.80
2023-03-21T23:08:14.885Z,11.80
2023-03-21T23:10:44.102Z,11.80
2023-03-21T23:13:12.143Z,11.80
2023-03-21T23:15:39.884Z,11.80
2023-03-21T23:18:07.458Z,11.70
2023-03-21T23:20:35.329Z,11.60
2023-03-21T23:23:03.107Z,11.60
2023-03-21T23:25:30.752Z,11.50
2023-03-21T23:27:58.266Z,11.50
2023-03-21T23:30:26.354Z,11.40
2023-03-21T23:32:53.965Z,11.30
2023-03-21T23:35:21.520Z,11.30
2023-03-21T23:37:52.499Z,11.30
2023-03-21T23:40:21.256Z,11.30
2023-03-21T23:42:48.836Z,11.40
2023-03-21T23:45:16.428Z,11.40
2023-03-21T23:47:44.224Z,11.30
2023-03-21T23:50:11.845Z,11.30
2023-03-21T23:52:41.586Z,11.30
2023-03-21T23:55:09.773Z,11.40
2023-03-21T23:57:41.789Z,11.40
